sensor_id;sensor_type;location;lat;lon;timestamp;P1;durP1;ratioP1;P2;durP2;ratioP2
20154;SDS011;10238;49.556;10.956;2022-11-20T00:00:08;16.60;;;9.38;;
20154;SDS011;10238;49.556;10.956;2022-11-20T00:02:58;14.40;;;10.20;;
20154;SDS011;10238;49.556;10.956;2022-11-20T00:05:46;17.08;;;9.82;;
20154;SDS011;10238;49.556;10.956;2022-11-20T00:08:34;17.25;;;9.80;;
20154;SDS011;10238;49.556;10.956;2022-11-20T00:11:23;14.80;;;9.18;;
20154;SDS011;10238;49.556;10.956;2022-11-20T00:14:13;18.90;;;10.23;;
20154;SDS011;10238;49.556;10.956;2022-11-20T00:17:01;17.55;;;9.77;;
20154;SDS011;10238;49.556;10.956;2022-11-20T00:19:50;14.88;;;9.57;;
20154;SDS011;10238;49.556;10.956;2022-11-20T00:22:38;17.90;;;9.60;;
20154;SDS011;10238;49.556;10.956;2022-11-20T00:25:26;16.95;;;9.20;;
20154;SDS011;10238;49.556;10.956;2022-11-20T00:28:14;14.98;;;9.18;;
20154;SDS011;10238;49.556;10.956;2022-11-20T00:31:02;16.58;;;9.38;;
20154;SDS011;10238;49.556;10.956;2022-11-20T00:33:51;17.45;;;10.02;;
20154;SDS011;10238;49.556;10.956;2022-11-20T00:36:41;20.63;;;9.65;;
20154;SDS011;10238;49.556;10.956;2022-11-20T00:39:29;19.48;;;10.23;;
20154;SDS011;10238;49.556;10.956;2022-11-20T00:42:17;16.92;;;9.18;;
20154;SDS011;10238;49.556;10.956;2022-11-20T00:45:05;25.02;;;12.70;;
20154;SDS011;10238;49.556;10.956;2022-11-20T00:47:53;20.05;;;11.40;;
20154;SDS011;10238;49.556;10.956;2022-11-20T00:50:41;15.93;;;9.38;;
20154;SDS011;10238;49.556;10.956;2022-11-20T00:53:31;16.30;;;9.48;;
20154;SDS011;10238;49.556;10.956;2022-11-20T00:56:19;16.23;;;9.75;;
20154;SDS011;10238;49.556;10.956;2022-11-20T00:59:08;15.23;;;9.45;;
20154;SDS011;10238;49.556;10.956;2022-11-20T01:01:56;15.82;;;9.55;;
20154;SDS011;10238;49.556;10.956;2022-11-20T01:04:44;15.93;;;9.85;;
20154;SDS011;10238;49.556;10.956;2022-11-20T01:07:31;15.73;;;9.50;;
20154;SDS011;10238;49.556;10.956;2022-11-20T01:10:21;22.23;;;11.10;;
20154;SDS011;10238;49.556;10.956;2022-11-20T01:13:09;18.58;;;9.93;;
20154;SDS011;10238;49.556;10.956;2022-11-20T01:16:15;17.15;;;9.77;;
20154;SDS011;10238;49.556;10.956;2022-11-20T01:19:05;15.85;;;9.70;;
20154;SDS011;10238;49.556;10.956;2022-11-20T01:21:54;18.65;;;10.35;;
20154;SDS011;10238;49.556;10.956;2022-11-20T01:24:42;18.90;;;9.52;;
20154;SDS011;10238;49.556;10.956;2022-11-20T01:27:31;17.42;;;10.02;;
20154;SDS011;10238;49.556;10.956;2022-11-20T01:30:19;17.42;;;9.73;;
20154;SDS011;10238;49.556;10.956;2022-11-20T01:33:07;17.45;;;9.68;;
20154;SDS011;10238;49.556;10.956;2022-11-20T01:36:02;15.85;;;9.32;;
20154;SDS011;10238;49.556;10.956;2022-11-20T01:42:12;17.25;;;9.48;;
20154;SDS011;10238;49.556;10.956;2022-11-20T01:48:44;17.58;;;9.60;;
20154;SDS011;10238;49.556;10.956;2022-11-20T01:51:38;17.15;;;9.65;;
20154;SDS011;10238;49.556;10.956;2022-11-20T01:54:30;18.73;;;10.23;;
20154;SDS011;10238;49.556;10.956;2022-11-20T01:57:22;16.15;;;9.93;;
20154;SDS011;10238;49.556;10.956;2022-11-20T02:00:14;15.80;;;9.10;;
20154;SDS011;10238;49.556;10.956;2022-11-20T02:03:05;16.00;;;8.57;;
20154;SDS011;10238;49.556;10.956;2022-11-20T02:05:57;16.98;;;9.32;;
20154;SDS011;10238;49.556;10.956;2022-11-20T02:08:53;17.20;;;9.32;;
20154;SDS011;10238;49.556;10.956;2022-11-20T02:11:41;16.05;;;9.18;;
20154;SDS011;10238;49.556;10.956;2022-11-20T02:14:29;18.20;;;9.13;;
20154;SDS011;10238;49.556;10.956;2022-11-20T02:17:17;14.30;;;8.73;;
20154;SDS011;10238;49.556;10.956;2022-11-20T02:20:07;15.23;;;8.88;;
20154;SDS011;10238;49.556;10.956;2022-11-20T02:22:56;15.25;;;9.30;;
20154;SDS011;10238;49.556;10.956;2022-11-20T02:25:51;15.80;;;9.80;;
20154;SDS011;10238;49.556;10.956;2022-11-20T02:28:40;15.73;;;9.23;;
20154;SDS011;10238;49.556;10.956;2022-11-20T02:31:33;16.52;;;9.68;;
20154;SDS011;10238;49.556;10.956;2022-11-20T02:34:27;17.00;;;9.43;;
20154;SDS011;10238;49.556;10.956;2022-11-20T02:37:15;18.15;;;9.15;;
20154;SDS011;10238;49.556;10.956;2022-11-20T02:40:05;18.73;;;9.55;;
20154;SDS011;10238;49.556;10.956;2022-11-20T02:42:55;18.90;;;9.60;;
20154;SDS011;10238;49.556;10.956;2022-11-20T02:45:44;19.33;;;10.90;;
20154;SDS011;10238;49.556;10.956;2022-11-20T02:48:32;14.50;;;9.15;;
20154;SDS011;10238;49.556;10.956;2022-11-20T02:51:20;18.63;;;9.90;;
20154;SDS011;10238;49.556;10.956;2022-11-20T02:54:08;18.67;;;10.45;;
20154;SDS011;10238;49.556;10.956;2022-11-20T02:56:56;20.27;;;10.02;;
20154;SDS011;10238;49.556;10.956;2022-11-20T02:59:46;16.95;;;9.18;;
20154;SDS011;10238;49.556;10.956;2022-11-20T03:02:34;18.13;;;10.40;;
20154;SDS011;10238;49.556;10.956;2022-11-20T03:05:22;16.60;;;9.85;;
20154;SDS011;10238;49.556;10.956;2022-11-20T03:08:10;17.17;;;9.70;;
20154;SDS011;10238;49.556;10.956;2022-11-20T03:11:01;17.60;;;9.57;;
20154;SDS011;10238;49.556;10.956;2022-11-20T03:13:51;16.63;;;9.45;;
20154;SDS011;10238;49.556;10.956;2022-11-20T03:16:41;18.25;;;10.05;;
20154;SDS011;10238;49.556;10.956;2022-11-20T03:19:31;19.02;;;9.95;;
20154;SDS011;10238;49.556;10.956;2022-11-20T03:22:20;18.30;;;9.55;;
20154;SDS011;10238;49.556;10.956;2022-11-20T03:25:08;18.65;;;9.93;;
20154;SDS011;10238;49.556;10.956;2022-11-20T03:27:55;18.63;;;9.80;;
20154;SDS011;10238;49.556;10.956;2022-11-20T03:30:43;19.48;;;11.02;;
20154;SDS011;10238;49.556;10.956;2022-11-20T03:33:33;17.00;;;9.63;;
20154;SDS011;10238;49.556;10.956;2022-11-20T03:36:21;16.58;;;9.30;;
20154;SDS011;10238;49.556;10.956;2022-11-20T03:39:09;19.15;;;10.40;;
20154;SDS011;10238;49.556;10.956;2022-11-20T03:41:57;18.65;;;9.88;;
20154;SDS011;10238;49.556;10.956;2022-11-20T03:44:45;18.85;;;10.32;;
20154;SDS011;10238;49.556;10.956;2022-11-20T03:47:33;23.80;;;12.38;;
20154;SDS011;10238;49.556;10.956;2022-11-20T03:50:23;22.98;;;11.88;;
20154;SDS011;10238;49.556;10.956;2022-11-20T03:53:11;18.52;;;11.18;;
20154;SDS011;10238;49.556;10.956;2022-11-20T03:55:59;15.38;;;9.30;;
20154;SDS011;10238;49.556;10.956;2022-11-20T03:58:47;19.10;;;10.25;;
20154;SDS011;10238;49.556;10.956;2022-11-20T04:01:35;18.13;;;9.93;;
20154;SDS011;10238;49.556;10.956;2022-11-20T04:04:23;17.80;;;9.65;;
20154;SDS011;10238;49.556;10.956;2022-11-20T04:07:13;17.80;;;10.23;;
20154;SDS011;10238;49.556;10.956;2022-11-20T04:10:01;17.80;;;9.88;;
20154;SDS011;10238;49.556;10.956;2022-11-20T04:12:49;22.67;;;10.90;;
20154;SDS011;10238;49.556;10.956;2022-11-20T04:15:37;18.65;;;10.10;;
20154;SDS011;10238;49.556;10.956;2022-11-20T04:18:24;19.75;;;10.30;;
20154;SDS011;10238;49.556;10.956;2022-11-20T04:21:12;17.65;;;9.63;;
20154;SDS011;10238;49.556;10.956;2022-11-20T04:24:02;21.50;;;10.65;;
20154;SDS011;10238;49.556;10.956;2022-11-20T04:26:50;18.67;;;10.00;;
20154;SDS011;10238;49.556;10.956;2022-11-20T04:29:40;17.40;;;9.57;;
20154;SDS011;10238;49.556;10.956;2022-11-20T04:32:28;20.92;;;11.27;;
20154;SDS011;10238;49.556;10.956;2022-11-20T04:35:16;19.15;;;10.05;;
20154;SDS011;10238;49.556;10.956;2022-11-20T04:38:04;17.80;;;9.73;;
20154;SDS011;10238;49.556;10.956;2022-11-20T04:40:56;17.05;;;10.05;;
20154;SDS011;10238;49.556;10.956;2022-11-20T04:43:46;18.95;;;10.30;;
20154;SDS011;10238;49.556;10.956;2022-11-20T04:46:36;21.02;;;11.40;;
20154;SDS011;10238;49.556;10.956;2022-11-20T04:49:25;18.30;;;10.52;;
20154;SDS011;10238;49.556;10.956;2022-11-20T04:52:13;15.48;;;9.65;;
20154;SDS011;10238;49.556;10.956;2022-11-20T04:55:01;21.08;;;10.60;;
20154;SDS011;10238;49.556;10.956;2022-11-20T04:57:51;17.33;;;9.65;;
20154;SDS011;10238;49.556;10.956;2022-11-20T05:00:39;17.63;;;9.38;;
20154;SDS011;10238;49.556;10.956;2022-11-20T05:03:27;19.15;;;9.82;;
20154;SDS011;10238;49.556;10.956;2022-11-20T05:06:15;19.50;;;10.32;;
20154;SDS011;10238;49.556;10.956;2022-11-20T05:09:05;19.42;;;10.15;;
20154;SDS011;10238;49.556;10.956;2022-11-20T05:11:53;22.42;;;11.38;;
20154;SDS011;10238;49.556;10.956;2022-11-20T05:14:42;19.27;;;10.60;;
20154;SDS011;10238;49.556;10.956;2022-11-20T05:17:30;17.55;;;9.23;;
20154;SDS011;10238;49.556;10.956;2022-11-20T05:20:19;20.58;;;10.43;;
20154;SDS011;10238;49.556;10.956;2022-11-20T05:23:07;16.77;;;9.02;;
20154;SDS011;10238;49.556;10.956;2022-11-20T05:25:55;19.17;;;9.48;;
20154;SDS011;10238;49.556;10.956;2022-11-20T05:28:44;19.05;;;9.95;;
20154;SDS011;10238;49.556;10.956;2022-11-20T05:31:34;18.25;;;9.80;;
20154;SDS011;10238;49.556;10.956;2022-11-20T05:34:22;23.13;;;11.88;;
20154;SDS011;10238;49.556;10.956;2022-11-20T05:37:10;21.50;;;10.98;;
20154;SDS011;10238;49.556;10.956;2022-11-20T05:39:58;20.15;;;10.93;;
20154;SDS011;10238;49.556;10.956;2022-11-20T05:42:46;17.05;;;9.38;;
20154;SDS011;10238;49.556;10.956;2022-11-20T05:45:34;18.92;;;9.77;;
20154;SDS011;10238;49.556;10.956;2022-11-20T05:48:25;19.17;;;9.80;;
20154;SDS011;10238;49.556;10.956;2022-11-20T05:51:14;19.73;;;9.93;;
20154;SDS011;10238;49.556;10.956;2022-11-20T05:54:04;19.50;;;9.40;;
20154;SDS011;10238;49.556;10.956;2022-11-20T05:56:51;16.42;;;9.45;;
20154;SDS011;10238;49.556;10.956;2022-11-20T05:59:40;17.35;;;9.88;;
20154;SDS011;10238;49.556;10.956;2022-11-20T06:02:28;17.15;;;9.15;;
20154;SDS011;10238;49.556;10.956;2022-11-20T06:05:17;17.70;;;9.50;;
20154;SDS011;10238;49.556;10.956;2022-11-20T06:08:06;21.33;;;10.38;;
20154;SDS011;10238;49.556;10.956;2022-11-20T06:10:54;28.27;;;13.48;;
20154;SDS011;10238;49.556;10.956;2022-11-20T06:13:42;19.30;;;9.90;;
20154;SDS011;10238;49.556;10.956;2022-11-20T06:16:31;18.65;;;9.57;;
20154;SDS011;10238;49.556;10.956;2022-11-20T06:19:19;20.15;;;10.32;;
20154;SDS011;10238;49.556;10.956;2022-11-20T06:22:08;16.90;;;9.80;;
20154;SDS011;10238;49.556;10.956;2022-11-20T06:24:56;22.08;;;11.02;;
20154;SDS011;10238;49.556;10.956;2022-11-20T06:27:44;18.17;;;10.32;;
20154;SDS011;10238;49.556;10.956;2022-11-20T06:30:32;19.13;;;9.80;;
20154;SDS011;10238;49.556;10.956;2022-11-20T06:33:20;19.13;;;10.48;;
20154;SDS011;10238;49.556;10.956;2022-11-20T06:36:09;23.23;;;11.23;;
20154;SDS011;10238;49.556;10.956;2022-11-20T06:39:06;20.52;;;10.85;;
20154;SDS011;10238;49.556;10.956;2022-11-20T06:41:54;25.80;;;12.43;;
20154;SDS011;10238;49.556;10.956;2022-11-20T06:44:43;18.65;;;9.93;;
20154;SDS011;10238;49.556;10.956;2022-11-20T06:47:31;19.15;;;9.88;;
20154;SDS011;10238;49.556;10.956;2022-11-20T06:50:19;19.13;;;9.65;;
20154;SDS011;10238;49.556;10.956;2022-11-20T06:53:07;17.15;;;9.90;;
20154;SDS011;10238;49.556;10.956;2022-11-20T06:55:56;17.50;;;9.88;;
20154;SDS011;10238;49.556;10.956;2022-11-20T06:58:44;17.50;;;9.93;;
20154;SDS011;10238;49.556;10.956;2022-11-20T07:01:33;16.13;;;9.32;;
20154;SDS011;10238;49.556;10.956;2022-11-20T07:04:21;19.38;;;9.85;;
20154;SDS011;10238;49.556;10.956;2022-11-20T07:07:09;17.92;;;9.57;;
20154;SDS011;10238;49.556;10.956;2022-11-20T07:09:57;20.08;;;10.30;;
20154;SDS011;10238;49.556;10.956;2022-11-20T07:12:50;17.67;;;9.73;;
20154;SDS011;10238;49.556;10.956;2022-11-20T07:18:26;19.40;;;10.20;;
20154;SDS011;10238;49.556;10.956;2022-11-20T07:21:14;19.80;;;10.02;;
20154;SDS011;10238;49.556;10.956;2022-11-20T07:24:01;18.30;;;9.07;;
20154;SDS011;10238;49.556;10.956;2022-11-20T07:26:49;17.40;;;9.55;;
20154;SDS011;10238;49.556;10.956;2022-11-20T07:29:39;16.65;;;8.63;;
20154;SDS011;10238;49.556;10.956;2022-11-20T07:32:26;24.58;;;12.30;;
20154;SDS011;10238;49.556;10.956;2022-11-20T07:35:14;21.00;;;10.40;;
20154;SDS011;10238;49.556;10.956;2022-11-20T07:38:02;21.08;;;11.40;;
20154;SDS011;10238;49.556;10.956;2022-11-20T07:40:53;17.42;;;9.52;;
20154;SDS011;10238;49.556;10.956;2022-11-20T07:43:42;17.92;;;9.27;;
20154;SDS011;10238;49.556;10.956;2022-11-20T07:46:31;18.83;;;9.82;;
20154;SDS011;10238;49.556;10.956;2022-11-20T07:49:19;16.17;;;8.65;;
20154;SDS011;10238;49.556;10.956;2022-11-20T07:52:07;18.35;;;9.65;;
20154;SDS011;10238;49.556;10.956;2022-11-20T07:54:55;17.88;;;8.85;;
20154;SDS011;10238;49.556;10.956;2022-11-20T07:57:43;17.92;;;9.57;;
20154;SDS011;10238;49.556;10.956;2022-11-20T08:00:31;16.05;;;9.32;;
20154;SDS011;10238;49.556;10.956;2022-11-20T08:03:20;19.70;;;10.05;;
20154;SDS011;10238;49.556;10.956;2022-11-20T08:06:10;23.60;;;11.65;;
20154;SDS011;10238;49.556;10.956;2022-11-20T08:08:58;21.27;;;10.57;;
20154;SDS011;10238;49.556;10.956;2022-11-20T08:11:46;23.42;;;11.68;;
20154;SDS011;10238;49.556;10.956;2022-11-20T08:14:51;18.80;;;10.02;;
20154;SDS011;10238;49.556;10.956;2022-11-20T08:17:40;18.52;;;9.68;;
20154;SDS011;10238;49.556;10.956;2022-11-20T08:20:50;17.45;;;9.00;;
20154;SDS011;10238;49.556;10.956;2022-11-20T08:23:38;19.73;;;9.43;;
20154;SDS011;10238;49.556;10.956;2022-11-20T08:26:26;18.73;;;10.32;;
20154;SDS011;10238;49.556;10.956;2022-11-20T08:29:13;16.90;;;9.43;;
20154;SDS011;10238;49.556;10.956;2022-11-20T08:32:01;28.55;;;13.23;;
20154;SDS011;10238;49.556;10.956;2022-11-20T08:34:49;24.00;;;12.48;;
20154;SDS011;10238;49.556;10.956;2022-11-20T08:37:39;27.48;;;13.82;;
20154;SDS011;10238;49.556;10.956;2022-11-20T08:40:27;27.23;;;14.30;;
20154;SDS011;10238;49.556;10.956;2022-11-20T08:43:15;19.13;;;10.32;;
20154;SDS011;10238;49.556;10.956;2022-11-20T08:46:03;20.25;;;10.73;;
20154;SDS011;10238;49.556;10.956;2022-11-20T08:48:51;16.15;;;9.45;;
20154;SDS011;10238;49.556;10.956;2022-11-20T08:51:40;16.58;;;9.48;;
20154;SDS011;10238;49.556;10.956;2022-11-20T08:54:29;22.02;;;11.60;;
20154;SDS011;10238;49.556;10.956;2022-11-20T08:57:17;17.88;;;10.00;;
20154;SDS011;10238;49.556;10.956;2022-11-20T09:00:06;18.73;;;10.02;;
20154;SDS011;10238;49.556;10.956;2022-11-20T09:02:57;20.95;;;10.88;;
20154;SDS011;10238;49.556;10.956;2022-11-20T09:05:46;19.30;;;10.15;;
20154;SDS011;10238;49.556;10.956;2022-11-20T09:08:34;19.02;;;10.60;;
20154;SDS011;10238;49.556;10.956;2022-11-20T09:11:24;18.73;;;10.00;;
20154;SDS011;10238;49.556;10.956;2022-11-20T09:14:12;24.95;;;12.98;;
20154;SDS011;10238;49.556;10.956;2022-11-20T09:17:00;17.58;;;9.90;;
20154;SDS011;10238;49.556;10.956;2022-11-20T09:19:48;16.27;;;9.68;;
20154;SDS011;10238;49.556;10.956;2022-11-20T09:22:38;17.13;;;9.45;;
20154;SDS011;10238;49.556;10.956;2022-11-20T09:25:27;18.70;;;9.93;;
20154;SDS011;10238;49.556;10.956;2022-11-20T09:28:16;21.90;;;11.23;;
20154;SDS011;10238;49.556;10.956;2022-11-20T09:31:05;17.13;;;9.85;;
20154;SDS011;10238;49.556;10.956;2022-11-20T09:33:53;17.20;;;10.05;;
20154;SDS011;10238;49.556;10.956;2022-11-20T09:36:41;17.05;;;9.88;;
20154;SDS011;10238;49.556;10.956;2022-11-20T09:39:29;17.25;;;9.20;;
20154;SDS011;10238;49.556;10.956;2022-11-20T09:42:20;16.10;;;9.15;;
20154;SDS011;10238;49.556;10.956;2022-11-20T09:45:20;21.63;;;11.18;;
20154;SDS011;10238;49.556;10.956;2022-11-20T09:48:26;18.27;;;10.68;;
20154;SDS011;10238;49.556;10.956;2022-11-20T09:51:26;20.95;;;11.88;;
20154;SDS011;10238;49.556;10.956;2022-11-20T09:54:22;17.50;;;10.32;;
20154;SDS011;10238;49.556;10.956;2022-11-20T09:57:17;19.23;;;10.40;;
20154;SDS011;10238;49.556;10.956;2022-11-20T10:00:10;18.20;;;10.27;;
20154;SDS011;10238;49.556;10.956;2022-11-20T10:03:03;17.30;;;10.30;;
20154;SDS011;10238;49.556;10.956;2022-11-20T10:05:59;15.50;;;10.10;;
20154;SDS011;10238;49.556;10.956;2022-11-20T10:08:51;19.67;;;10.75;;
20154;SDS011;10238;49.556;10.956;2022-11-20T10:11:46;20.33;;;11.30;;
20154;SDS011;10238;49.556;10.956;2022-11-20T10:14:51;21.02;;;10.98;;
20154;SDS011;10238;49.556;10.956;2022-11-20T10:18:08;17.38;;;9.95;;
20154;SDS011;10238;49.556;10.956;2022-11-20T10:21:09;16.83;;;10.75;;
20154;SDS011;10238;49.556;10.956;2022-11-20T10:24:06;30.05;;;14.30;;
20154;SDS011;10238;49.556;10.956;2022-11-20T10:27:15;26.20;;;13.65;;
20154;SDS011;10238;49.556;10.956;2022-11-20T10:30:27;18.90;;;11.02;;
20154;SDS011;10238;49.556;10.956;2022-11-20T10:33:18;23.13;;;12.07;;
20154;SDS011;10238;49.556;10.956;2022-11-20T10:36:12;19.73;;;11.20;;
20154;SDS011;10238;49.556;10.956;2022-11-20T10:39:06;24.48;;;12.85;;
20154;SDS011;10238;49.556;10.956;2022-11-20T10:42:02;21.90;;;12.73;;
20154;SDS011;10238;49.556;10.956;2022-11-20T10:44:58;19.95;;;12.00;;
20154;SDS011;10238;49.556;10.956;2022-11-20T10:47:59;23.67;;;12.40;;
20154;SDS011;10238;49.556;10.956;2022-11-20T10:51:11;28.17;;;14.38;;
20154;SDS011;10238;49.556;10.956;2022-11-20T10:54:08;26.15;;;13.18;;
20154;SDS011;10238;49.556;10.956;2022-11-20T10:57:05;21.58;;;11.90;;
20154;SDS011;10238;49.556;10.956;2022-11-20T11:00:05;21.90;;;11.90;;
20154;SDS011;10238;49.556;10.956;2022-11-20T11:02:56;21.27;;;11.02;;
20154;SDS011;10238;49.556;10.956;2022-11-20T11:05:48;21.88;;;12.82;;
20154;SDS011;10238;49.556;10.956;2022-11-20T11:11:31;27.08;;;13.25;;
20154;SDS011;10238;49.556;10.956;2022-11-20T11:14:20;22.80;;;13.07;;
20154;SDS011;10238;49.556;10.956;2022-11-20T11:17:18;21.60;;;13.15;;
20154;SDS011;10238;49.556;10.956;2022-11-20T11:20:15;22.50;;;13.40;;
20154;SDS011;10238;49.556;10.956;2022-11-20T11:23:10;20.40;;;12.02;;
20154;SDS011;10238;49.556;10.956;2022-11-20T11:26:21;32.08;;;17.33;;
20154;SDS011;10238;49.556;10.956;2022-11-20T11:29:15;25.13;;;14.52;;
20154;SDS011;10238;49.556;10.956;2022-11-20T11:32:06;25.92;;;13.35;;
20154;SDS011;10238;49.556;10.956;2022-11-20T11:34:59;22.70;;;12.98;;
20154;SDS011;10238;49.556;10.956;2022-11-20T11:37:48;27.60;;;15.65;;
20154;SDS011;10238;49.556;10.956;2022-11-20T11:40:36;27.23;;;14.15;;
20154;SDS011;10238;49.556;10.956;2022-11-20T11:43:28;23.52;;;14.18;;
20154;SDS011;10238;49.556;10.956;2022-11-20T11:46:36;26.23;;;15.55;;
20154;SDS011;10238;49.556;10.956;2022-11-20T11:49:25;22.33;;;12.95;;
20154;SDS011;10238;49.556;10.956;2022-11-20T11:52:14;21.27;;;12.77;;
20154;SDS011;10238;49.556;10.956;2022-11-20T11:55:05;21.80;;;12.73;;
20154;SDS011;10238;49.556;10.956;2022-11-20T11:58:00;18.20;;;11.88;;
20154;SDS011;10238;49.556;10.956;2022-11-20T12:01:07;21.17;;;12.55;;
20154;SDS011;10238;49.556;10.956;2022-11-20T12:04:07;19.90;;;12.05;;
20154;SDS011;10238;49.556;10.956;2022-11-20T12:07:06;19.83;;;12.48;;
20154;SDS011;10238;49.556;10.956;2022-11-20T12:10:21;22.02;;;13.80;;
20154;SDS011;10238;49.556;10.956;2022-11-20T12:13:30;20.10;;;13.40;;
20154;SDS011;10238;49.556;10.956;2022-11-20T12:16:28;19.40;;;12.68;;
20154;SDS011;10238;49.556;10.956;2022-11-20T12:19:20;19.30;;;12.02;;
20154;SDS011;10238;49.556;10.956;2022-11-20T12:22:13;17.85;;;12.40;;
20154;SDS011;10238;49.556;10.956;2022-11-20T12:25:14;17.55;;;11.80;;
20154;SDS011;10238;49.556;10.956;2022-11-20T12:35:14;16.52;;;10.48;;
20154;SDS011;10238;49.556;10.956;2022-11-20T12:38:29;14.48;;;9.32;;
20154;SDS011;10238;49.556;10.956;2022-11-20T12:41:40;13.85;;;8.90;;
20154;SDS011;10238;49.556;10.956;2022-11-20T12:45:28;11.85;;;8.30;;
20154;SDS011;10238;49.556;10.956;2022-11-20T12:49:15;12.80;;;9.15;;
20154;SDS011;10238;49.556;10.956;2022-11-20T12:52:58;12.00;;;6.53;;
20154;SDS011;10238;49.556;10.956;2022-11-20T12:56:33;13.40;;;8.32;;
20154;SDS011;10238;49.556;10.956;2022-11-20T12:59:46;14.98;;;8.60;;
20154;SDS011;10238;49.556;10.956;2022-11-20T13:06:22;9.75;;;7.15;;
20154;SDS011;10238;49.556;10.956;2022-11-20T13:09:12;10.70;;;7.40;;
20154;SDS011;10238;49.556;10.956;2022-11-20T13:12:03;10.02;;;7.32;;
20154;SDS011;10238;49.556;10.956;2022-11-20T13:14:58;9.20;;;6.75;;
20154;SDS011;10238;49.556;10.956;2022-11-20T13:17:57;10.43;;;6.93;;
20154;SDS011;10238;49.556;10.956;2022-11-20T13:20:46;9.38;;;6.60;;
20154;SDS011;10238;49.556;10.956;2022-11-20T13:23:36;8.05;;;6.00;;
20154;SDS011;10238;49.556;10.956;2022-11-20T13:26:24;10.18;;;6.40;;
20154;SDS011;10238;49.556;10.956;2022-11-20T13:29:16;9.48;;;6.68;;
20154;SDS011;10238;49.556;10.956;2022-11-20T13:32:05;10.82;;;6.72;;
20154;SDS011;10238;49.556;10.956;2022-11-20T13:35:01;10.02;;;6.43;;
20154;SDS011;10238;49.556;10.956;2022-11-20T13:37:58;9.52;;;6.78;;
20154;SDS011;10238;49.556;10.956;2022-11-20T13:40:53;9.15;;;5.90;;
20154;SDS011;10238;49.556;10.956;2022-11-20T13:43:43;7.47;;;5.43;;
20154;SDS011;10238;49.556;10.956;2022-11-20T13:46:37;9.48;;;6.43;;
20154;SDS011;10238;49.556;10.956;2022-11-20T13:49:27;11.57;;;7.03;;
20154;SDS011;10238;49.556;10.956;2022-11-20T13:52:26;9.68;;;6.40;;
20154;SDS011;10238;49.556;10.956;2022-11-20T13:55:26;9.90;;;6.82;;
20154;SDS011;10238;49.556;10.956;2022-11-20T13:58:26;9.05;;;6.57;;
20154;SDS011;10238;49.556;10.956;2022-11-20T14:01:23;8.57;;;6.53;;
20154;SDS011;10238;49.556;10.956;2022-11-20T14:04:14;9.48;;;6.40;;
20154;SDS011;10238;49.556;10.956;2022-11-20T14:07:10;8.52;;;6.10;;
20154;SDS011;10238;49.556;10.956;2022-11-20T14:09:59;8.70;;;6.18;;
20154;SDS011;10238;49.556;10.956;2022-11-20T14:12:48;9.50;;;6.13;;
20154;SDS011;10238;49.556;10.956;2022-11-20T14:15:37;10.25;;;6.18;;
20154;SDS011;10238;49.556;10.956;2022-11-20T14:18:29;8.23;;;5.72;;
20154;SDS011;10238;49.556;10.956;2022-11-20T14:21:21;9.63;;;6.03;;
20154;SDS011;10238;49.556;10.956;2022-11-20T14:24:11;9.23;;;6.55;;
20154;SDS011;10238;49.556;10.956;2022-11-20T14:27:00;11.63;;;7.00;;
20154;SDS011;10238;49.556;10.956;2022-11-20T14:29:49;11.63;;;7.78;;
20154;SDS011;10238;49.556;10.956;2022-11-20T14:32:38;14.77;;;8.07;;
20154;SDS011;10238;49.556;10.956;2022-11-20T14:35:28;14.95;;;9.30;;
20154;SDS011;10238;49.556;10.956;2022-11-20T14:38:18;17.83;;;9.43;;
20154;SDS011;10238;49.556;10.956;2022-11-20T14:41:15;17.60;;;9.90;;
20154;SDS011;10238;49.556;10.956;2022-11-20T14:44:05;19.35;;;10.02;;
20154;SDS011;10238;49.556;10.956;2022-11-20T14:46:55;15.73;;;9.40;;
20154;SDS011;10238;49.556;10.956;2022-11-20T14:49:46;16.67;;;9.15;;
20154;SDS011;10238;49.556;10.956;2022-11-20T14:52:35;15.65;;;9.00;;
20154;SDS011;10238;49.556;10.956;2022-11-20T14:55:27;14.43;;;8.68;;
20154;SDS011;10238;49.556;10.956;2022-11-20T14:58:20;15.90;;;9.48;;
20154;SDS011;10238;49.556;10.956;2022-11-20T15:01:11;13.10;;;8.70;;
20154;SDS011;10238;49.556;10.956;2022-11-20T15:04:01;14.77;;;9.13;;
20154;SDS011;10238;49.556;10.956;2022-11-20T15:06:55;15.73;;;9.32;;
20154;SDS011;10238;49.556;10.956;2022-11-20T15:09:44;14.35;;;8.52;;
20154;SDS011;10238;49.556;10.956;2022-11-20T15:12:32;14.02;;;8.65;;
20154;SDS011;10238;49.556;10.956;2022-11-20T15:15:25;13.00;;;7.80;;
20154;SDS011;10238;49.556;10.956;2022-11-20T15:18:17;13.98;;;8.35;;
20154;SDS011;10238;49.556;10.956;2022-11-20T15:21:09;14.82;;;8.73;;
20154;SDS011;10238;49.556;10.956;2022-11-20T15:24:00;13.57;;;8.25;;
20154;SDS011;10238;49.556;10.956;2022-11-20T15:26:48;12.15;;;7.53;;
20154;SDS011;10238;49.556;10.956;2022-11-20T15:29:36;11.88;;;7.35;;
20154;SDS011;10238;49.556;10.956;2022-11-20T15:32:26;11.15;;;7.35;;
20154;SDS011;10238;49.556;10.956;2022-11-20T15:35:19;12.25;;;7.15;;
20154;SDS011;10238;49.556;10.956;2022-11-20T15:38:09;12.23;;;7.93;;
20154;SDS011;10238;49.556;10.956;2022-11-20T15:40:58;13.18;;;7.25;;
20154;SDS011;10238;49.556;10.956;2022-11-20T15:43:46;13.65;;;7.53;;
20154;SDS011;10238;49.556;10.956;2022-11-20T15:46:36;13.30;;;8.15;;
20154;SDS011;10238;49.556;10.956;2022-11-20T15:49:27;9.88;;;7.05;;
20154;SDS011;10238;49.556;10.956;2022-11-20T15:52:15;12.18;;;7.40;;
20154;SDS011;10238;49.556;10.956;2022-11-20T15:55:04;12.80;;;7.50;;
20154;SDS011;10238;49.556;10.956;2022-11-20T15:57:56;14.93;;;8.90;;
20154;SDS011;10238;49.556;10.956;2022-11-20T16:00:44;14.82;;;8.75;;
20154;SDS011;10238;49.556;10.956;2022-11-20T16:03:32;13.55;;;7.10;;
20154;SDS011;10238;49.556;10.956;2022-11-20T16:06:20;9.45;;;6.43;;
20154;SDS011;10238;49.556;10.956;2022-11-20T16:09:08;12.10;;;6.93;;
20154;SDS011;10238;49.556;10.956;2022-11-20T16:11:56;14.43;;;8.27;;
20154;SDS011;10238;49.556;10.956;2022-11-20T16:14:46;9.77;;;7.05;;
20154;SDS011;10238;49.556;10.956;2022-11-20T16:17:58;13.90;;;8.45;;
20154;SDS011;10238;49.556;10.956;2022-11-20T16:20:47;12.05;;;7.63;;
20154;SDS011;10238;49.556;10.956;2022-11-20T16:23:36;12.05;;;6.95;;
20154;SDS011;10238;49.556;10.956;2022-11-20T16:26:24;10.18;;;6.68;;
20154;SDS011;10238;49.556;10.956;2022-11-20T16:29:13;10.02;;;6.40;;
20154;SDS011;10238;49.556;10.956;2022-11-20T16:32:02;18.17;;;9.35;;
20154;SDS011;10238;49.556;10.956;2022-11-20T16:34:50;12.20;;;8.10;;
20154;SDS011;10238;49.556;10.956;2022-11-20T16:37:38;11.82;;;7.63;;
20154;SDS011;10238;49.556;10.956;2022-11-20T16:40:27;12.80;;;6.75;;
20154;SDS011;10238;49.556;10.956;2022-11-20T16:43:15;13.90;;;8.68;;
20154;SDS011;10238;49.556;10.956;2022-11-20T16:46:03;11.10;;;7.15;;
20154;SDS011;10238;49.556;10.956;2022-11-20T16:48:54;9.98;;;6.78;;
20154;SDS011;10238;49.556;10.956;2022-11-20T16:51:42;14.95;;;8.95;;
20154;SDS011;10238;49.556;10.956;2022-11-20T16:54:30;15.95;;;9.20;;
20154;SDS011;10238;49.556;10.956;2022-11-20T16:57:18;10.48;;;7.15;;
20154;SDS011;10238;49.556;10.956;2022-11-20T17:00:07;12.15;;;7.90;;
20154;SDS011;10238;49.556;10.956;2022-11-20T17:02:56;14.13;;;7.15;;